KCRP/CRP METAR and TAF weather

Enter ICAO airport designator
Station Type Date Time Source
KCRP METAR 2020/11/25 22:51 UTC NOAA

KCRP 252251Z 05011KT 10SM FEW023 SCT037 BKN050 25/13 A2998 RMK AO2 SLP151 T02500133


Station Type Date Time Source
KCRP Decoded METAR 2020/11/25 22:51 UTC NOAA

CORPUS CHRISTI INTERNATIONAL , TX, United States (KCRP) 27-46N 97-31W 16M
Nov 25, 2020 - 05:51 PM EST / 2020.11.25 2251 UTC
Wind: from the NE (050 degrees) at 13 MPH (11 KT):0
Visibility: 10 mile(s):0
Sky conditions: mostly cloudy
Temperature: 77.0 F (25.0 C)
Dew Point: 55.9 F (13.3 C)
Relative Humidity: 48%
Pressure (altimeter): 29.98 in. Hg (1015 hPa)
ob: KCRP 252251Z 05011KT 10SM FEW023 SCT037 BKN050 25/13 A2998 RMK AO2 SLP151 T02500133
cycle: 23

Station Type Date Time Source
KCRP TAF 2020/11/25 19:57 UTC NOAA

TAF
AMD KCRP 251854Z 2519/2618 02015KT P6SM SCT025 BKN040
TEMPO 2519/2521 BKN025 OVC040
FM252200 04013KT P6SM SCT035
FM260200 04007KT P6SM SCT020
FM260800 05006KT P6SM BKN020 BKN035
FM261500 07008KT P6SM BKN015 BKN025

Example: see airport list